Time,TemperatureF,DewpointF,PressureIn,WindDirection,WindDirectionDegrees,WindSpeedMPH,WindSpeedGustMPH,Humidity,HourlyPrecipIn,Conditions,Clouds,dailyrainin,SoftwareType,DateUTC
2013-05-19 00:00:00,71.8,64.2,29.91,North,0,0.0,0.0,77,0.00,,,0.00,WUHU216HW,2013-05-19 05:00:00,
2013-05-19 00:05:00,71.8,64.2,29.91,North,0,0.0,0.0,77,0.00,,,0.00,WUHU216HW,2013-05-19 05:05:00,
2013-05-19 00:30:00,71.5,63.8,29.90,North,0,0.0,0.0,77,0.00,,,0.00,WUHU216HW,2013-05-19 05:30:00,
2013-05-19 00:35:00,71.5,63.8,29.90,North,0,0.0,0.0,77,0.00,,,0.00,WUHU216HW,2013-05-19 05:35:00,
2013-05-19 01:00:00,71.6,64.5,29.90,North,0,0.0,0.0,78,0.00,,,0.00,WUHU216HW,2013-05-19 06:00:00,
2013-05-19 01:05:00,71.6,64.5,29.90,North,0,0.0,0.0,78,0.00,,,0.00,WUHU216HW,2013-05-19 06:05:00,
2013-05-19 01:30:00,72.2,64.5,29.89,North,0,0.0,0.0,77,0.00,,,0.00,WUHU216HW,2013-05-19 06:30:00,
2013-05-19 01:35:00,72.2,64.5,29.89,North,0,0.0,0.0,77,0.00,,,0.00,WUHU216HW,2013-05-19 06:35:00,
2013-05-19 02:00:00,72.0,64.8,29.90,North,0,0.0,0.0,78,0.00,,,0.00,WUHU216HW,2013-05-19 07:00:00,
2013-05-19 02:05:00,72.0,64.8,29.90,North,0,0.0,0.0,78,0.00,,,0.00,WUHU216HW,2013-05-19 07:05:00,
2013-05-19 02:30:00,71.8,65.0,29.90,North,0,0.0,0.0,79,0.00,,,0.00,WUHU216HW,2013-05-19 07:30:00,
2013-05-19 02:35:00,71.8,65.0,29.90,North,0,0.0,0.0,79,0.00,,,0.00,WUHU216HW,2013-05-19 07:35:00,
2013-05-19 03:00:00,71.6,64.8,29.89,North,0,0.0,0.0,79,0.00,,,0.00,WUHU216HW,2013-05-19 08:00:00,
2013-05-19 03:05:00,71.6,64.8,29.89,North,0,0.0,0.0,79,0.00,,,0.00,WUHU216HW,2013-05-19 08:05:00,
2013-05-19 03:30:00,71.3,64.8,29.90,North,0,0.0,0.0,80,0.00,,,0.00,WUHU216HW,2013-05-19 08:30:00,
2013-05-19 03:35:00,71.3,64.8,29.90,North,0,0.0,0.0,80,0.00,,,0.00,WUHU216HW,2013-05-19 08:35:00,
2013-05-19 04:00:00,70.6,64.5,29.90,North,0,0.0,0.0,81,0.00,,,0.00,WUHU216HW,2013-05-19 09:00:00,
2013-05-19 04:05:00,70.6,64.5,29.90,North,0,0.0,0.0,81,0.00,,,0.00,WUHU216HW,2013-05-19 09:05:00,
2013-05-19 04:30:00,70.2,64.5,29.90,North,0,0.0,0.0,82,0.00,,,0.00,WUHU216HW,2013-05-19 09:30:00,
2013-05-19 04:35:00,70.2,64.5,29.90,North,0,0.0,0.0,82,0.00,,,0.00,WUHU216HW,2013-05-19 09:35:00,
2013-05-19 05:00:00,70.0,64.5,29.89,North,0,0.0,0.0,83,0.00,,,0.00,WUHU216HW,2013-05-19 10:00:00,
2013-05-19 05:05:00,70.0,64.5,29.89,North,0,0.0,0.0,83,0.00,,,0.00,WUHU216HW,2013-05-19 10:05:00,
2013-05-19 05:30:00,70.0,64.5,29.88,North,0,0.0,0.0,83,0.00,,,0.00,WUHU216HW,2013-05-19 10:30:00,
2013-05-19 05:35:00,70.0,64.5,29.88,North,0,0.0,0.0,83,0.00,,,0.00,WUHU216HW,2013-05-19 10:35:00,
2013-05-19 06:00:00,69.5,64.4,29.88,North,0,0.0,0.0,84,0.00,,,0.00,WUHU216HW,2013-05-19 11:00:00,
2013-05-19 06:05:00,69.5,64.4,29.88,North,0,0.0,0.0,84,0.00,,,0.00,WUHU216HW,2013-05-19 11:05:00,
2013-05-19 06:30:00,70.0,64.9,29.88,North,0,0.0,0.0,84,0.00,,,0.00,WUHU216HW,2013-05-19 11:30:00,
2013-05-19 06:35:00,70.0,64.9,29.88,North,0,0.0,0.0,84,0.00,,,0.00,WUHU216HW,2013-05-19 11:35:00,
2013-05-19 06:59:00,70.6,65.4,29.86,North,0,0.0,0.0,84,0.00,,,0.00,WUHU216HW,2013-05-19 11:59:00,
2013-05-19 07:00:00,70.6,65.4,29.86,North,0,0.0,0.0,84,0.00,,,0.00,WUHU216HW,2013-05-19 12:00:00,
2013-05-19 07:05:00,70.6,65.4,29.86,North,0,0.0,0.0,84,0.00,,,0.00,WUHU216HW,2013-05-19 12:05:00,
2013-05-19 07:29:00,71.3,66.2,29.88,North,0,0.0,0.0,84,0.00,,,0.00,WUHU216HW,2013-05-19 12:29:00,
2013-05-19 07:30:00,71.3,66.2,29.88,North,0,0.0,0.0,84,0.00,,,0.00,WUHU216HW,2013-05-19 12:30:00,
2013-05-19 07:35:00,71.3,66.2,29.88,North,0,0.0,0.0,84,0.00,,,0.00,WUHU216HW,2013-05-19 12:35:00,
2013-05-19 07:59:00,72.5,67.1,29.87,North,0,0.0,0.0,83,0.00,,,0.00,WUHU216HW,2013-05-19 12:59:00,
2013-05-19 08:00:00,72.5,67.1,29.87,North,0,0.0,0.0,83,0.00,,,0.00,WUHU216HW,2013-05-19 13:00:00,
2013-05-19 08:05:00,72.5,67.1,29.87,North,0,0.0,0.0,83,0.00,,,0.00,WUHU216HW,2013-05-19 13:05:00,
2013-05-19 08:30:00,75.2,69.8,29.87,North,0,0.0,0.0,83,0.00,,,0.00,WUHU216HW,2013-05-19 13:30:00,
2013-05-19 08:35:00,75.2,69.8,29.87,North,0,0.0,0.0,83,0.00,,,0.00,WUHU216HW,2013-05-19 13:35:00,
2013-05-19 08:59:00,77.4,71.1,29.90,North,0,0.0,0.0,81,0.00,,,0.00,WUHU216HW,2013-05-19 13:59:00,
2013-05-19 09:00:00,77.4,71.1,29.90,North,0,0.0,0.0,81,0.00,,,0.00,WUHU216HW,2013-05-19 14:00:00,
2013-05-19 09:05:00,77.4,71.1,29.90,North,0,0.0,0.0,81,0.00,,,0.00,WUHU216HW,2013-05-19 14:05:00,
2013-05-19 09:30:00,77.2,70.6,29.90,North,0,0.0,0.0,80,0.00,,,0.00,WUHU216HW,2013-05-19 14:30:00,
2013-05-19 09:35:00,77.2,70.6,29.90,North,0,0.0,0.0,80,0.00,,,0.00,WUHU216HW,2013-05-19 14:35:00,
2013-05-19 09:59:00,78.1,71.8,29.92,North,0,0.0,0.0,81,0.00,,,0.00,WUHU216HW,2013-05-19 14:59:00,
2013-05-19 10:00:00,78.1,71.8,29.92,North,0,0.0,0.0,81,0.00,,,0.00,WUHU216HW,2013-05-19 15:00:00,
2013-05-19 10:05:00,78.1,71.8,29.92,North,0,0.0,0.0,81,0.00,,,0.00,WUHU216HW,2013-05-19 15:05:00,
2013-05-19 10:30:00,80.6,72.8,29.90,North,0,0.0,0.0,77,0.00,,,0.00,WUHU216HW,2013-05-19 15:30:00,
2013-05-19 10:35:00,80.6,72.8,29.90,North,0,0.0,0.0,77,0.00,,,0.00,WUHU216HW,2013-05-19 15:35:00,
2013-05-19 10:59:00,83.0,74.3,29.89,North,0,0.0,0.0,75,0.00,,,0.00,WUHU216HW,2013-05-19 15:59:00,
2013-05-19 11:00:00,83.0,74.3,29.89,North,0,0.0,0.0,75,0.00,,,0.00,WUHU216HW,2013-05-19 16:00:00,
2013-05-19 11:05:00,83.0,74.3,29.89,North,0,0.0,0.0,75,0.00,,,0.00,WUHU216HW,2013-05-19 16:05:00,
2013-05-19 11:30:00,86.0,75.6,29.87,North,0,0.0,0.0,71,0.00,,,0.00,WUHU216HW,2013-05-19 16:30:00,
2013-05-19 11:35:00,86.0,75.6,29.87,North,0,0.0,0.0,71,0.00,,,0.00,WUHU216HW,2013-05-19 16:35:00,
2013-05-19 11:59:00,88.6,75.8,29.86,North,0,0.0,0.0,66,0.00,,,0.00,WUHU216HW,2013-05-19 16:59:00,
2013-05-19 12:00:00,88.6,75.8,29.86,North,0,0.0,0.0,66,0.00,,,0.00,WUHU216HW,2013-05-19 17:00:00,
2013-05-19 12:05:00,88.6,75.8,29.86,North,0,0.0,0.0,66,0.00,,,0.00,WUHU216HW,2013-05-19 17:05:00,
2013-05-19 12:30:00,89.5,75.7,29.85,North,0,0.0,0.0,64,0.00,,,0.00,WUHU216HW,2013-05-19 17:30:00,
2013-05-19 12:35:00,89.5,75.7,29.85,North,0,0.0,0.0,64,0.00,,,0.00,WUHU216HW,2013-05-19 17:35:00,
2013-05-19 12:59:00,91.3,75.9,29.83,North,0,0.0,0.0,61,0.00,,,0.00,WUHU216HW,2013-05-19 17:59:00,
2013-05-19 13:00:00,91.3,75.9,29.83,North,0,0.0,0.0,61,0.00,,,0.00,WUHU216HW,2013-05-19 18:00:00,
2013-05-19 13:05:00,91.3,75.9,29.83,North,0,0.0,0.0,61,0.00,,,0.00,WUHU216HW,2013-05-19 18:05:00,
2013-05-19 13:30:00,91.4,74.5,29.82,North,0,0.0,0.0,58,0.00,,,0.00,WUHU216HW,2013-05-19 18:30:00,
2013-05-19 13:35:00,91.4,74.5,29.82,North,0,0.0,0.0,58,0.00,,,0.00,WUHU216HW,2013-05-19 18:35:00,
2013-05-19 13:59:00,91.1,74.2,29.80,North,0,0.0,0.0,58,0.00,,,0.00,WUHU216HW,2013-05-19 18:59:00,
2013-05-19 14:00:00,91.1,74.2,29.80,North,0,0.0,0.0,58,0.00,,,0.00,WUHU216HW,2013-05-19 19:00:00,
2013-05-19 14:05:00,91.1,74.2,29.80,North,0,0.0,0.0,58,0.00,,,0.00,WUHU216HW,2013-05-19 19:05:00,
2013-05-19 14:29:00,91.1,74.7,29.79,North,0,0.0,0.0,59,0.00,,,0.00,WUHU216HW,2013-05-19 19:29:00,
2013-05-19 14:30:00,91.1,74.7,29.79,North,0,0.0,0.0,59,0.00,,,0.00,WUHU216HW,2013-05-19 19:30:00,
2013-05-19 14:35:00,91.1,74.7,29.79,North,0,0.0,0.0,59,0.00,,,0.00,WUHU216HW,2013-05-19 19:35:00,
2013-05-19 14:59:00,90.9,73.5,29.77,North,0,0.0,0.0,57,0.00,,,0.00,WUHU216HW,2013-05-19 19:59:00,
2013-05-19 15:00:00,90.9,73.5,29.77,North,0,0.0,0.0,57,0.00,,,0.00,WUHU216HW,2013-05-19 20:00:00,
2013-05-19 15:05:00,90.9,73.5,29.77,North,0,0.0,0.0,57,0.00,,,0.00,WUHU216HW,2013-05-19 20:05:00,
2013-05-19 15:29:00,91.3,74.9,29.77,North,0,0.0,0.0,59,0.00,,,0.00,WUHU216HW,2013-05-19 20:29:00,
2013-05-19 15:30:00,91.3,74.9,29.77,North,0,0.0,0.0,59,0.00,,,0.00,WUHU216HW,2013-05-19 20:30:00,
2013-05-19 15:35:00,91.3,74.9,29.77,North,0,0.0,0.0,59,0.00,,,0.00,WUHU216HW,2013-05-19 20:35:00,
2013-05-19 15:59:00,91.1,72.5,29.75,North,0,0.0,0.0,55,0.00,,,0.00,WUHU216HW,2013-05-19 20:59:00,
2013-05-19 16:00:00,91.1,72.5,29.75,North,0,0.0,0.0,55,0.00,,,0.00,WUHU216HW,2013-05-19 21:00:00,
2013-05-19 16:05:00,91.1,72.5,29.75,North,0,0.0,0.0,55,0.00,,,0.00,WUHU216HW,2013-05-19 21:05:00,
2013-05-19 16:29:00,91.1,73.1,29.75,North,0,0.0,0.0,56,0.00,,,0.00,WUHU216HW,2013-05-19 21:29:00,
2013-05-19 16:30:00,91.1,73.1,29.75,North,0,0.0,0.0,56,0.00,,,0.00,WUHU216HW,2013-05-19 21:30:00,
2013-05-19 16:35:00,91.1,73.1,29.75,North,0,0.0,0.0,56,0.00,,,0.00,WUHU216HW,2013-05-19 21:35:00,
2013-05-19 16:59:00,90.5,71.6,29.74,North,0,0.0,0.0,54,0.00,,,0.00,WUHU216HW,2013-05-19 21:59:00,
2013-05-19 17:00:00,90.5,71.6,29.74,North,0,0.0,0.0,54,0.00,,,0.00,WUHU216HW,2013-05-19 22:00:00,
2013-05-19 17:05:00,90.5,71.6,29.74,North,0,0.0,0.0,54,0.00,,,0.00,WUHU216HW,2013-05-19 22:05:00,
2013-05-19 17:30:00,90.0,72.2,29.74,North,0,0.0,0.0,56,0.00,,,0.00,WUHU216HW,2013-05-19 22:30:00,
2013-05-19 17:35:00,90.0,72.2,29.74,North,0,0.0,0.0,56,0.00,,,0.00,WUHU216HW,2013-05-19 22:35:00,
2013-05-19 18:00:00,88.7,69.9,29.73,North,0,0.0,0.0,54,0.00,,,0.00,WUHU216HW,2013-05-19 23:00:00,
2013-05-19 18:05:00,88.7,69.9,29.73,North,0,0.0,0.0,54,0.00,,,0.00,WUHU216HW,2013-05-19 23:05:00,
2013-05-19 18:30:00,87.5,70.4,29.71,North,0,0.0,0.0,57,0.00,,,0.00,WUHU216HW,2013-05-19 23:30:00,
2013-05-19 18:35:00,87.5,70.4,29.71,North,0,0.0,0.0,57,0.00,,,0.00,WUHU216HW,2013-05-19 23:35:00,
2013-05-19 18:59:00,86.0,67.4,29.71,North,0,0.0,0.0,54,0.00,,,0.00,WUHU216HW,2013-05-19 23:59:00,
2013-05-19 19:00:00,86.0,67.4,29.71,North,0,0.0,0.0,54,0.00,,,0.00,WUHU216HW,2013-05-20 00:00:00,
2013-05-19 19:05:00,86.0,67.4,29.71,North,0,0.0,0.0,54,0.00,,,0.00,WUHU216HW,2013-05-20 00:05:00,
2013-05-19 19:29:00,85.0,65.4,29.73,North,0,0.0,0.0,52,0.00,,,0.00,WUHU216HW,2013-05-20 00:29:00,
2013-05-19 19:30:00,85.0,65.4,29.73,North,0,0.0,0.0,52,0.00,,,0.00,WUHU216HW,2013-05-20 00:30:00,
2013-05-19 19:35:00,85.0,65.4,29.73,North,0,0.0,0.0,52,0.00,,,0.00,WUHU216HW,2013-05-20 00:35:00,
2013-05-19 19:59:00,83.2,64.7,29.74,North,0,0.0,0.0,54,0.00,,,0.00,WUHU216HW,2013-05-20 00:59:00,
2013-05-19 20:00:00,83.2,64.7,29.74,North,0,0.0,0.0,54,0.00,,,0.00,WUHU216HW,2013-05-20 01:00:00,
2013-05-19 20:05:00,83.2,64.7,29.74,North,0,0.0,0.0,54,0.00,,,0.00,WUHU216HW,2013-05-20 01:05:00,
2013-05-19 20:29:00,81.7,63.9,29.75,North,0,0.0,0.0,55,0.00,,,0.00,WUHU216HW,2013-05-20 01:29:00,
2013-05-19 20:30:00,81.7,63.9,29.75,North,0,0.0,0.0,55,0.00,,,0.00,WUHU216HW,2013-05-20 01:30:00,
2013-05-19 20:35:00,81.7,63.9,29.75,North,0,0.0,0.0,55,0.00,,,0.00,WUHU216HW,2013-05-20 01:35:00,
2013-05-19 21:00:00,80.8,64.1,29.76,North,0,0.0,0.0,57,0.00,,,0.00,WUHU216HW,2013-05-20 02:00:00,
2013-05-19 21:05:00,80.8,64.1,29.76,North,0,0.0,0.0,57,0.00,,,0.00,WUHU216HW,2013-05-20 02:05:00,
2013-05-19 21:30:00,79.6,65.0,29.77,North,0,0.0,0.0,61,0.00,,,0.00,WUHU216HW,2013-05-20 02:30:00,
2013-05-19 21:35:00,79.6,65.0,29.77,North,0,0.0,0.0,61,0.00,,,0.00,WUHU216HW,2013-05-20 02:35:00,
2013-05-19 22:00:00,79.6,65.4,29.79,North,0,0.0,0.0,62,0.00,,,0.00,WUHU216HW,2013-05-20 03:00:00,
2013-05-19 22:05:00,79.6,65.4,29.79,North,0,0.0,0.0,62,0.00,,,0.00,WUHU216HW,2013-05-20 03:05:00,
2013-05-19 22:30:00,78.7,65.9,29.80,North,0,0.0,0.0,65,0.00,,,0.00,WUHU216HW,2013-05-20 03:30:00,
2013-05-19 22:35:00,78.7,65.9,29.80,North,0,0.0,0.0,65,0.00,,,0.00,WUHU216HW,2013-05-20 03:35:00,
2013-05-19 23:00:00,78.3,66.4,29.82,North,0,0.0,0.0,67,0.00,,,0.00,WUHU216HW,2013-05-20 04:00:00,
2013-05-19 23:01:00,78.3,66.4,29.82,North,0,0.0,0.0,67,0.00,,,0.00,WUHU216HW,2013-05-20 04:01:00,
2013-05-19 23:06:00,78.3,66.4,29.82,North,0,0.0,0.0,67,0.00,,,0.00,WUHU216HW,2013-05-20 04:06:00,
2013-05-19 23:30:00,77.9,66.5,29.82,North,0,0.0,0.0,68,0.00,,,0.00,WUHU216HW,2013-05-20 04:30:00,
2013-05-19 23:35:00,77.9,66.5,29.82,North,0,0.0,0.0,68,0.00,,,0.00,WUHU216HW,2013-05-20 04:35:00,